Terminal Aerodrome Forecast
Issued by NWS

Home | Current Version | Previous Version | Text Only | Print | Product List | Glossary Off
Versions: 1 2 3 4 5 6 7 8 9 10 11 12 13 14 15 16 17 18 19 20 21 22 23 24 25 26 27

236
FTUS43 KLOT 201458 AAA
TAFMDW
TAF AMD
KMDW 201458Z 2015/2112 20009KT P6SM SKC
     FM201700 19011G17KT P6SM FEW250
     FM210000 18008KT P6SM FEW150 BKN250=

USA.gov is the U.S. government's official web portal to all federal, state and local government web resources and services.